Nantes/Atlantique

Airport
ICAO code: 
LFRS
Summary
ICAO Region: 
EUR
Territory: 
Location: 
Nantes, Pays de la Loire,
Coordinates: 
Aerial View: 
47° 9' 11.514" N, 1° 36' 38.628" W
Metar
Observation
LFRS 011030Z AUTO 29014KT 260V330 9999 FEW024 12/07 Q1009 TEMPO 28015G25KT
Station
Nantes
Date/Time
2021-12-01 10:30:00
Wind direction
290°
Wind speed
14 kts
Lowest cloud amount
few clouds
Temperature
12°C
Dew point
7°C
Humidity
71%
QNH
1009 hPa
Weather condition
n/a

Description

International airport serving western France and the city of Nantes.

Climatology

Temperate Marine climate/Oceanic climate (Köppen climate classification Cfb). Moderately cool summer and comparatively warm winter with a temperature range of only 14°C. Prevailing south-westerly winds from the Atlantic Ocean.

Runways

Designator Length Width Surface Rops
3/21 2900 45 ASP Yes/Yes
Airport map: 
Aerial View: 

Accidents and Serious Incidents at or in the vicinity of LFRS

SKYbrary Partners:

Safety knowledge contributed by: